createdAt,value
2022-10-25T00:00:13.774Z,1.80
2022-10-25T00:05:35.674Z,1.08
2022-10-25T00:10:57.375Z,1.30
2022-10-25T00:16:22.397Z,1.63
2022-10-25T00:21:44.146Z,1.30
2022-10-25T00:27:05.932Z,1.25
2022-10-25T00:32:28.052Z,1.50
2022-10-25T00:37:50.288Z,1.20
2022-10-25T00:43:28.282Z,1.40
2022-10-25T00:49:10.654Z,1.10
2022-10-25T00:54:37.485Z,1.38
2022-10-25T01:00:01.344Z,1.20
2022-10-25T01:05:23.521Z,1.50
2022-10-25T01:10:45.552Z,1.30
2022-10-25T01:16:18.453Z,1.45
2022-10-25T01:21:44.197Z,1.30
2022-10-25T01:27:38.784Z,1.30
2022-10-25T01:33:16.418Z,1.48
2022-10-25T01:38:50.419Z,1.55
2022-10-25T01:44:30.688Z,1.90
2022-10-25T01:50:00.625Z,1.30
2022-10-25T01:55:30.327Z,1.42
2022-10-25T02:00:56.358Z,1.35
2022-10-25T02:06:33.299Z,1.58
2022-10-25T02:11:58.039Z,1.58
2022-10-25T02:17:25.133Z,1.33
2022-10-25T02:22:48.525Z,1.88
2022-10-25T02:28:12.759Z,2.00
2022-10-25T02:33:34.483Z,1.65
2022-10-25T02:38:57.376Z,2.40
2022-10-25T02:44:19.039Z,1.58
2022-10-25T02:49:40.748Z,1.33
2022-10-25T02:55:02.601Z,1.55
2022-10-25T03:00:24.365Z,1.63
2022-10-25T03:05:46.119Z,1.90
2022-10-25T03:11:08.863Z,1.63
2022-10-25T03:16:30.550Z,1.50
2022-10-25T03:21:52.222Z,1.75
2022-10-25T03:27:13.972Z,1.70
2022-10-25T03:32:36.212Z,1.50
2022-10-25T03:37:57.895Z,1.88
2022-10-25T03:43:19.662Z,2.42
2022-10-25T03:48:41.390Z,1.80
2022-10-25T03:54:03.173Z,1.85
2022-10-25T03:59:25.293Z,1.65
2022-10-25T04:04:46.956Z,1.85
2022-10-25T04:10:08.986Z,1.85
2022-10-25T04:15:30.729Z,1.90
2022-10-25T04:20:52.385Z,2.15
2022-10-25T04:26:20.337Z,1.70
2022-10-25T04:31:42.015Z,2.10
2022-10-25T04:37:03.776Z,1.90
2022-10-25T04:42:25.488Z,2.40
2022-10-25T04:47:47.250Z,2.25
2022-10-25T04:53:09.182Z,1.88
2022-10-25T04:58:31.640Z,1.95
2022-10-25T05:03:53.447Z,2.33
2022-10-25T05:09:15.124Z,2.58
2022-10-25T05:14:36.936Z,2.35
2022-10-25T05:19:58.690Z,3.40
2022-10-25T05:25:21.235Z,2.58
2022-10-25T05:30:43.997Z,2.58
2022-10-25T05:36:05.875Z,2.42
2022-10-25T05:41:30.681Z,2.42
2022-10-25T05:46:55.714Z,2.35
2022-10-25T05:52:17.397Z,2.78
2022-10-25T05:57:39.062Z,2.53
2022-10-25T06:03:01.843Z,3.00
2022-10-25T06:08:23.669Z,3.15
2022-10-25T06:13:45.931Z,3.20
2022-10-25T06:19:08.091Z,2.70
2022-10-25T06:24:29.772Z,2.58
2022-10-25T06:29:51.466Z,2.30
2022-10-25T06:35:13.270Z,3.13
2022-10-25T06:40:35.512Z,2.53
2022-10-25T06:45:57.475Z,2.75
2022-10-25T06:51:19.580Z,2.88
2022-10-25T06:56:41.380Z,3.03
2022-10-25T07:02:03.185Z,2.65
2022-10-25T07:07:24.969Z,3.60
2022-10-25T07:12:46.664Z,2.08
2022-10-25T07:18:08.361Z,2.20
2022-10-25T07:23:30.939Z,2.45
2022-10-25T07:28:54.353Z,2.00
2022-10-25T07:34:16.108Z,2.45
2022-10-25T07:39:37.786Z,2.00
2022-10-25T07:44:59.475Z,2.15
2022-10-25T07:50:21.210Z,2.22
2022-10-25T07:55:42.907Z,2.75
2022-10-25T08:01:06.938Z,2.20
2022-10-25T08:06:28.743Z,2.15
2022-10-25T08:11:50.411Z,1.90
2022-10-25T08:17:12.304Z,2.00
2022-10-25T08:22:33.963Z,2.13
2022-10-25T08:27:55.685Z,2.10
2022-10-25T08:33:17.421Z,1.70
2022-10-25T08:38:39.135Z,2.80
2022-10-25T08:44:16.060Z,1.90
2022-10-25T08:49:56.746Z,1.90
2022-10-25T08:55:41.621Z,2.40
2022-10-25T09:01:22.481Z,2.63
2022-10-25T09:07:00.528Z,1.83
2022-10-25T09:12:28.320Z,1.95
2022-10-25T09:17:52.396Z,2.05
2022-10-25T09:23:31.749Z,2.10
2022-10-25T09:29:22.467Z,2.03
2022-10-25T09:34:44.960Z,1.80
2022-10-25T09:40:12.303Z,1.42
2022-10-25T09:45:37.290Z,1.25
2022-10-25T09:51:39.212Z,1.50
2022-10-25T09:57:00.979Z,1.38
2022-10-25T10:02:25.512Z,1.30
2022-10-25T10:07:49.823Z,1.23
2022-10-25T10:13:17.392Z,1.40
2022-10-25T10:18:40.136Z,1.48
2022-10-25T10:24:05.530Z,1.30
2022-10-25T10:29:30.477Z,1.35
2022-10-25T10:34:57.570Z,1.20
2022-10-25T10:40:19.183Z,1.20
2022-10-25T10:45:49.850Z,1.67
2022-10-25T10:51:42.929Z,1.13
2022-10-25T10:57:06.439Z,1.23
2022-10-25T11:02:39.962Z,1.20
2022-10-25T11:08:07.581Z,1.77
2022-10-25T11:13:29.355Z,1.35
2022-10-25T11:19:08.608Z,1.20
2022-10-25T11:24:39.509Z,1.20
2022-10-25T11:30:18.795Z,1.27
2022-10-25T11:36:03.826Z,1.25
2022-10-25T11:41:40.771Z,1.10
2022-10-25T11:47:24.475Z,1.20
2022-10-25T11:52:56.858Z,1.30
2022-10-25T11:58:24.955Z,1.27
2022-10-25T12:04:25.450Z,1.10
2022-10-25T12:09:53.073Z,1.30
2022-10-25T12:15:40.939Z,1.45
2022-10-25T12:21:04.271Z,1.55
2022-10-25T12:26:33.335Z,1.52
2022-10-25T12:32:01.775Z,1.38
2022-10-25T12:37:37.366Z,2.00
2022-10-25T12:43:16.174Z,1.48
2022-10-25T12:49:01.311Z,1.42
2022-10-25T12:54:28.963Z,1.85
2022-10-25T13:00:09.815Z,1.48
2022-10-25T13:05:49.925Z,2.00
2022-10-25T13:11:12.555Z,1.50
2022-10-25T13:16:34.293Z,1.30
2022-10-25T13:21:55.902Z,1.55
2022-10-25T13:27:29.502Z,2.53
2022-10-25T13:33:16.143Z,1.55
2022-10-25T13:38:39.986Z,1.23
2022-10-25T13:44:04.873Z,1.48
2022-10-25T13:49:36.296Z,1.70
2022-10-25T13:54:58.951Z,2.20
2022-10-25T14:00:23.672Z,1.40
2022-10-25T14:05:54.808Z,1.60
2022-10-25T14:11:21.630Z,1.60
2022-10-25T14:17:01.943Z,2.03
2022-10-25T14:22:35.464Z,1.48
2022-10-25T14:28:14.624Z,2.17
2022-10-25T14:33:42.917Z,1.77
2022-10-25T14:39:17.568Z,1.98
2022-10-25T14:44:46.674Z,2.00
2022-10-25T14:50:14.998Z,1.80
2022-10-25T14:55:37.898Z,1.73
2022-10-25T15:01:04.800Z,1.67
2022-10-25T15:06:31.601Z,1.60
2022-10-25T15:12:11.743Z,1.90
2022-10-25T15:17:34.647Z,2.42
2022-10-25T15:23:15.162Z,2.05
2022-10-25T15:28:55.209Z,2.38
2022-10-25T15:34:17.509Z,1.80
2022-10-25T15:39:39.838Z,2.00
2022-10-25T15:45:04.411Z,2.20
2022-10-25T15:50:26.580Z,1.70
2022-10-25T15:55:49.764Z,1.50
2022-10-25T16:01:11.965Z,2.33
2022-10-25T16:06:33.936Z,4.28
2022-10-25T16:11:55.639Z,4.85
2022-10-25T16:17:17.435Z,4.07
2022-10-25T16:22:39.132Z,4.10
2022-10-25T16:28:01.405Z,2.50
2022-10-25T16:33:23.165Z,2.20
2022-10-25T16:38:44.810Z,2.47
2022-10-25T16:44:06.606Z,2.72
2022-10-25T16:49:28.283Z,4.50
2022-10-25T16:54:49.985Z,3.50
2022-10-25T17:00:12.796Z,3.17
2022-10-25T17:05:34.777Z,4.80
2022-10-25T17:10:56.437Z,2.85
2022-10-25T17:16:18.115Z,3.42
2022-10-25T17:21:39.983Z,3.38
2022-10-25T17:27:02.101Z,3.05
2022-10-25T17:32:23.969Z,3.03
2022-10-25T17:37:47.125Z,3.25
2022-10-25T17:43:09.219Z,2.80
2022-10-25T17:48:31.567Z,3.90
2022-10-25T17:53:57.675Z,3.20
2022-10-25T17:59:19.365Z,2.85
2022-10-25T18:04:53.824Z,3.40
2022-10-25T18:10:23.041Z,3.65
2022-10-25T18:15:49.278Z,2.80
2022-10-25T18:21:13.839Z,4.28
2022-10-25T18:26:35.703Z,3.60
2022-10-25T18:31:57.397Z,3.05
2022-10-25T18:37:19.188Z,3.38
2022-10-25T18:42:41.141Z,3.20
2022-10-25T18:48:02.830Z,3.40
2022-10-25T18:53:24.667Z,2.80
2022-10-25T18:58:46.652Z,3.40
2022-10-25T19:04:08.360Z,4.32
2022-10-25T19:09:30.196Z,5.47
2022-10-25T19:14:51.946Z,4.13
2022-10-25T19:20:13.786Z,4.50
2022-10-25T19:25:36.316Z,4.00
2022-10-25T19:31:04.654Z,3.58
2022-10-25T19:36:26.619Z,4.00
2022-10-25T19:41:50.289Z,3.90
2022-10-25T19:47:12.144Z,4.25
2022-10-25T19:52:35.508Z,4.65
2022-10-25T19:57:57.387Z,4.13
2022-10-25T20:03:19.154Z,4.28
2022-10-25T20:08:41.716Z,4.82
2022-10-25T20:14:04.492Z,4.18
2022-10-25T20:19:26.293Z,3.80
2022-10-25T20:24:48.001Z,3.83
2022-10-25T20:30:09.778Z,3.50
2022-10-25T20:35:35.510Z,4.45
2022-10-25T20:41:18.085Z,3.90
2022-10-25T20:46:40.184Z,4.68
2022-10-25T20:52:01.961Z,4.47
2022-10-25T20:57:23.722Z,4.50
2022-10-25T21:02:45.443Z,5.00
2022-10-25T21:08:07.374Z,4.30
2022-10-25T21:13:31.478Z,5.22
2022-10-25T21:18:53.184Z,5.05
2022-10-25T21:24:14.845Z,5.40
2022-10-25T21:29:36.815Z,4.35
2022-10-25T21:34:58.591Z,4.72
2022-10-25T21:40:20.272Z,6.30
2022-10-25T21:45:42.103Z,5.88
2022-10-25T21:51:04.005Z,3.75
2022-10-25T21:56:31.202Z,5.25
2022-10-25T22:01:53.506Z,4.40
2022-10-25T22:07:15.297Z,5.45
2022-10-25T22:12:36.962Z,5.80
2022-10-25T22:17:58.632Z,4.60
2022-10-25T22:23:20.308Z,4.45
2022-10-25T22:28:42.660Z,4.30
2022-10-25T22:34:06.532Z,4.88
2022-10-25T22:39:28.279Z,4.75
2022-10-25T22:44:49.977Z,5.35
2022-10-25T22:50:11.684Z,3.35
2022-10-25T22:55:33.353Z,3.10
2022-10-25T23:06:34.803Z,2.90
2022-10-25T23:11:56.466Z,3.33
2022-10-25T23:17:18.180Z,3.53
2022-10-25T23:22:39.864Z,3.60
2022-10-25T23:28:01.514Z,3.47
2022-10-25T23:33:23.174Z,2.97
2022-10-25T23:38:46.251Z,3.03
2022-10-25T23:44:07.935Z,2.95
2022-10-25T23:49:29.603Z,2.53
2022-10-25T23:54:52.484Z,2.92
